Time;durP1;ratioP1;P1;durP2;ratioP2;P2;SDS_P1;SDS_P2;PMS_P1;PMS_P2;Temp;Humidity;BMP_temperature;BMP_pressure;BME280_temperature;BME280_humidity;BME280_pressure;Samples;Min_cycle;Max_cycle;Signal;HPM_P1;HPM_P2
2022/12/19 00:01:15;;;;;;;45.80;24.73;;;;;;;;;;4987275;28;100065;-71
2022/12/19 00:03:45;;;;;;;45.07;24.13;;;;;;;;;;4982632;28;98414;-71
2022/12/19 00:06:12;;;;;;;51.13;26.98;;;;;;;;;;4982706;28;99356;-71
2022/12/19 00:08:43;;;;;;;58.45;29.15;;;;;;;;;;4985693;28;100228;-71
2022/12/19 00:11:10;;;;;;;53.47;27.45;;;;;;;;;;4993053;28;98280;-72
2022/12/19 00:13:37;;;;;;;61.08;32.08;;;;;;;;;;4989887;28;99143;-71
2022/12/19 00:16:09;;;;;;;54.25;30.00;;;;;;;;;;4997355;28;98295;-71
2022/12/19 00:18:37;;;;;;;64.53;32.92;;;;;;;;;;4988845;28;100059;-71
2022/12/19 00:21:04;;;;;;;69.60;34.72;;;;;;;;;;4989096;28;100051;-71
2022/12/19 00:23:31;;;;;;;81.55;35.40;;;;;;;;;;5000153;28;98469;-71
2022/12/19 00:26:17;;;;;;;62.40;33.25;;;;;;;;;;4990643;28;99633;-71
2022/12/19 00:28:46;;;;;;;56.78;32.22;;;;;;;;;;4987801;28;101566;-71
2022/12/19 00:31:13;;;;;;;80.70;38.35;;;;;;;;;;4967457;28;99508;-71
2022/12/19 00:33:40;;;;;;;68.30;35.63;;;;;;;;;;4971187;28;98325;-71
2022/12/19 00:36:12;;;;;;;61.20;32.00;;;;;;;;;;4968995;28;98669;-71
2022/12/19 00:38:43;;;;;;;65.40;36.35;;;;;;;;;;4968876;28;98294;-71
2022/12/19 00:41:15;;;;;;;70.93;34.85;;;;;;;;;;4968037;28;99934;-71
2022/12/19 00:43:42;;;;;;;59.95;30.23;;;;;;;;;;4977475;28;99273;-71
2022/12/19 00:46:10;;;;;;;72.35;35.90;;;;;;;;;;4988745;28;98256;-71
2022/12/19 00:48:36;;;;;;;67.38;32.20;;;;;;;;;;4989213;28;98859;-71
2022/12/19 00:51:05;;;;;;;76.07;35.78;;;;;;;;;;5008950;28;98361;-73
2022/12/19 00:53:33;;;;;;;65.88;33.22;;;;;;;;;;5007788;28;98433;-71
2022/12/19 00:56:00;;;;;;;55.25;30.38;;;;;;;;;;5009964;28;101624;-72
2022/12/19 00:58:27;;;;;;;58.17;31.55;;;;;;;;;;5008671;28;98356;-72
2022/12/19 01:00:53;;;;;;;71.15;34.85;;;;;;;;;;5001800;28;99290;-71
2022/12/19 01:03:20;;;;;;;51.63;26.23;;;;;;;;;;4989449;28;98986;-72
2022/12/19 01:05:46;;;;;;;66.45;34.85;;;;;;;;;;4988364;28;98394;-71
2022/12/19 01:08:17;;;;;;;60.00;32.03;;;;;;;;;;4985151;28;100249;-71
2022/12/19 01:10:45;;;;;;;49.53;26.23;;;;;;;;;;4975663;28;98519;-72
2022/12/19 01:13:12;;;;;;;63.80;34.00;;;;;;;;;;4981770;28;100418;-71
2022/12/19 01:15:42;;;;;;;58.92;31.65;;;;;;;;;;4987622;28;98803;-71
2022/12/19 01:18:09;;;;;;;40.22;23.60;;;;;;;;;;4998646;28;98223;-71
2022/12/19 01:20:39;;;;;;;54.28;29.25;;;;;;;;;;5006953;28;98843;-70
2022/12/19 01:23:06;;;;;;;62.13;32.95;;;;;;;;;;5007868;28;98384;-71
2022/12/19 01:25:34;;;;;;;54.85;30.35;;;;;;;;;;5008456;28;98799;-71
2022/12/19 01:28:03;;;;;;;56.65;30.27;;;;;;;;;;5008209;28;98947;-72
2022/12/19 01:30:30;;;;;;;54.78;29.52;;;;;;;;;;4995458;28;98247;-71
2022/12/19 01:32:57;;;;;;;57.45;32.38;;;;;;;;;;4988205;28;99470;-71
2022/12/19 01:35:26;;;;;;;44.38;26.80;;;;;;;;;;4987150;28;99884;-72
2022/12/19 01:37:52;;;;;;;47.30;27.83;;;;;;;;;;4988924;28;98359;-72
2022/12/19 01:40:34;;;;;;;60.92;32.42;;;;;;;;;;4991162;28;99635;-71
2022/12/19 01:43:00;;;;;;;45.13;24.73;;;;;;;;;;4987976;28;98881;-71
2022/12/19 01:45:30;;;;;;;74.63;34.55;;;;;;;;;;4986782;28;99665;-71
2022/12/19 01:48:10;;;;;;;66.55;33.70;;;;;;;;;;4988260;28;99925;-71
2022/12/19 01:50:38;;;;;;;64.60;33.53;;;;;;;;;;4989493;28;98293;-71
2022/12/19 01:53:26;;;;;;;71.63;37.17;;;;;;;;;;4991490;28;98151;-71
2022/12/19 01:55:53;;;;;;;54.85;30.13;;;;;;;;;;4990471;28;100204;-71
2022/12/19 01:58:19;;;;;;;62.45;33.95;;;;;;;;;;4988986;28;98227;-71
2022/12/19 02:00:46;;;;;;;83.88;36.00;;;;;;;;;;4991168;28;99571;-71
2022/12/19 02:03:22;;;;;;;77.30;37.63;;;;;;;;;;4993344;28;100349;-71
2022/12/19 02:05:49;;;;;;;63.28;29.60;;;;;;;;;;4990854;28;99270;-71
2022/12/19 02:08:17;;;;;;;79.55;36.80;;;;;;;;;;4989376;28;101638;-71
2022/12/19 02:10:44;;;;;;;60.72;31.90;;;;;;;;;;4988884;28;98310;-71
2022/12/19 02:13:13;;;;;;;96.03;40.35;;;;;;;;;;4969750;28;101281;-70
2022/12/19 02:15:45;;;;;;;83.25;37.75;;;;;;;;;;4999085;28;101953;-71
2022/12/19 02:18:15;;;;;;;75.35;36.75;;;;;;;;;;4978642;28;100493;-72
2022/12/19 02:21:00;;;;;;;81.97;37.00;;;;;;;;;;4988583;28;98381;-72
2022/12/19 02:23:45;;;;;;;83.68;39.22;;;;;;;;;;4990486;28;100028;-71
2022/12/19 02:26:28;;;;;;;86.82;39.42;;;;;;;;;;4985767;28;100346;-72
2022/12/19 02:29:00;;;;;;;67.32;30.77;;;;;;;;;;4982252;28;98856;-71
2022/12/19 02:31:29;;;;;;;98.47;39.00;;;;;;;;;;4989227;28;98517;-71
2022/12/19 02:34:00;;;;;;;76.45;37.13;;;;;;;;;;4989841;28;98820;-71
2022/12/19 02:36:30;;;;;;;82.40;38.45;;;;;;;;;;4987978;28;99825;-72
2022/12/19 02:39:10;;;;;;;79.35;35.67;;;;;;;;;;4989185;28;98255;-71
2022/12/19 02:41:42;;;;;;;60.22;29.52;;;;;;;;;;5022520;28;98509;-71
2022/12/19 02:44:18;;;;;;;80.60;37.00;;;;;;;;;;4992728;28;99224;-71
2022/12/19 02:46:45;;;;;;;90.78;35.75;;;;;;;;;;4992123;28;98543;-71
2022/12/19 02:49:12;;;;;;;78.70;37.70;;;;;;;;;;4989210;28;101501;-71
2022/12/19 02:51:46;;;;;;;76.72;35.63;;;;;;;;;;5022351;28;98308;-71
2022/12/19 02:54:12;;;;;;;65.10;32.75;;;;;;;;;;4988453;28;101531;-71
2022/12/19 02:56:47;;;;;;;61.17;30.20;;;;;;;;;;4984286;28;101544;-71
2022/12/19 02:59:32;;;;;;;88.70;37.95;;;;;;;;;;4985345;28;98265;-71
2022/12/19 03:02:14;;;;;;;77.68;35.05;;;;;;;;;;5005940;28;100535;-71
2022/12/19 03:04:54;;;;;;;71.40;33.33;;;;;;;;;;4990089;28;98665;-71
2022/12/19 03:07:32;;;;;;;59.05;29.30;;;;;;;;;;4990518;28;98485;-72
2022/12/19 03:10:14;;;;;;;71.00;30.45;;;;;;;;;;4991964;28;100721;-71
2022/12/19 03:12:46;;;;;;;67.00;32.20;;;;;;;;;;5010871;28;99063;-71
2022/12/19 03:15:13;;;;;;;50.38;26.83;;;;;;;;;;4984940;28;98392;-71
2022/12/19 03:17:40;;;;;;;54.67;27.08;;;;;;;;;;4987401;28;100836;-71
2022/12/19 03:20:08;;;;;;;67.15;31.20;;;;;;;;;;4987446;28;99062;-71
2022/12/19 03:22:34;;;;;;;52.13;26.20;;;;;;;;;;4983892;28;98672;-70
2022/12/19 03:25:01;;;;;;;56.85;28.23;;;;;;;;;;4984328;28;98993;-71
2022/12/19 03:27:31;;;;;;;74.53;35.47;;;;;;;;;;4989631;28;98324;-71
2022/12/19 03:30:03;;;;;;;78.90;37.38;;;;;;;;;;4989001;28;98497;-71
2022/12/19 03:32:31;;;;;;;52.13;24.80;;;;;;;;;;4991515;28;100154;-71
2022/12/19 03:35:00;;;;;;;59.55;29.33;;;;;;;;;;4989274;28;98936;-71
2022/12/19 03:37:29;;;;;;;63.88;29.98;;;;;;;;;;4990141;28;99145;-71
2022/12/19 03:40:01;;;;;;;78.35;36.20;;;;;;;;;;4989655;28;98291;-71
2022/12/19 03:45:20;;;;;;;46.63;24.02;;;;;;;;;;5002525;28;100099;-71
2022/12/19 03:47:49;;;;;;;72.37;34.90;;;;;;;;;;4988215;28;99231;-70
2022/12/19 03:50:16;;;;;;;75.40;32.03;;;;;;;;;;4988973;28;99054;-71
2022/12/19 03:52:49;;;;;;;68.05;31.33;;;;;;;;;;4988743;28;100473;-71
2022/12/19 03:55:18;;;;;;;71.18;30.45;;;;;;;;;;4992483;28;98358;-72
2022/12/19 03:58:04;;;;;;;70.22;32.78;;;;;;;;;;4988066;28;100210;-71
2022/12/19 04:00:33;;;;;;;69.60;31.55;;;;;;;;;;4989401;28;98780;-71
2022/12/19 04:03:00;;;;;;;67.10;30.50;;;;;;;;;;4988694;28;99694;-71
2022/12/19 04:05:27;;;;;;;49.17;23.73;;;;;;;;;;4987364;28;98877;-71
2022/12/19 04:07:57;;;;;;;54.60;26.48;;;;;;;;;;4989494;28;98185;-71
2022/12/19 04:10:24;;;;;;;53.58;22.42;;;;;;;;;;4988205;28;99611;-70
2022/12/19 04:12:53;;;;;;;64.50;30.73;;;;;;;;;;4988750;28;99289;-71
2022/12/19 04:15:22;;;;;;;58.38;26.85;;;;;;;;;;4989291;28;98241;-71
2022/12/19 04:17:56;;;;;;;63.10;32.10;;;;;;;;;;4992474;27;99101;-71
2022/12/19 04:20:27;;;;;;;46.47;23.83;;;;;;;;;;5003084;28;99859;-71
2022/12/19 04:22:57;;;;;;;51.88;27.10;;;;;;;;;;4989060;28;99141;-71
2022/12/19 04:25:25;;;;;;;47.38;26.23;;;;;;;;;;4987940;28;100187;-71
2022/12/19 04:27:57;;;;;;;40.97;22.30;;;;;;;;;;4985289;27;98837;-71
2022/12/19 04:30:24;;;;;;;52.42;26.52;;;;;;;;;;4985564;28;101717;-71
2022/12/19 04:32:51;;;;;;;47.47;25.58;;;;;;;;;;4985433;28;100100;-71
2022/12/19 04:35:17;;;;;;;62.45;27.65;;;;;;;;;;4988907;28;98292;-71
2022/12/19 04:37:43;;;;;;;52.10;27.73;;;;;;;;;;4991834;28;99798;-72
2022/12/19 04:40:10;;;;;;;44.80;23.77;;;;;;;;;;4988363;28;98233;-71
2022/12/19 04:42:37;;;;;;;35.65;21.15;;;;;;;;;;4988824;28;99388;-72
2022/12/19 04:45:03;;;;;;;59.22;29.05;;;;;;;;;;4988755;28;100002;-70
2022/12/19 04:47:30;;;;;;;61.17;28.27;;;;;;;;;;4988569;28;98264;-70
2022/12/19 04:49:57;;;;;;;35.78;18.90;;;;;;;;;;4988019;28;99724;-71
2022/12/19 04:52:23;;;;;;;69.18;33.25;;;;;;;;;;4988755;28;99482;-70
2022/12/19 04:54:49;;;;;;;62.90;30.15;;;;;;;;;;4989196;28;98340;-71
2022/12/19 04:57:16;;;;;;;58.65;28.20;;;;;;;;;;4989419;28;99574;-71
2022/12/19 04:59:42;;;;;;;49.75;25.00;;;;;;;;;;4990779;28;99957;-70
2022/12/19 05:02:08;;;;;;;36.03;20.55;;;;;;;;;;4989236;28;98395;-71
2022/12/19 05:04:35;;;;;;;53.13;25.08;;;;;;;;;;4988138;28;98839;-69
2022/12/19 05:07:01;;;;;;;38.35;22.70;;;;;;;;;;4986921;28;98547;-70
2022/12/19 05:09:28;;;;;;;53.28;27.95;;;;;;;;;;4988987;27;98945;-71
2022/12/19 05:11:54;;;;;;;49.67;27.27;;;;;;;;;;4988140;28;99941;-71
2022/12/19 05:14:20;;;;;;;46.88;24.42;;;;;;;;;;4987677;28;98353;-71
2022/12/19 05:16:47;;;;;;;59.08;26.77;;;;;;;;;;4988420;28;99576;-72
2022/12/19 05:19:13;;;;;;;54.33;29.55;;;;;;;;;;4999726;28;100016;-70
2022/12/19 05:21:41;;;;;;;60.80;28.13;;;;;;;;;;5011340;28;98851;-70
2022/12/19 05:24:07;;;;;;;55.25;27.55;;;;;;;;;;5011142;28;99134;-70
2022/12/19 05:26:34;;;;;;;58.63;28.63;;;;;;;;;;4998041;28;98535;-70
2022/12/19 05:29:00;;;;;;;34.10;19.05;;;;;;;;;;4991203;28;99668;-70
2022/12/19 05:31:26;;;;;;;61.60;28.83;;;;;;;;;;4989406;28;99994;-70
2022/12/19 05:33:53;;;;;;;38.63;22.00;;;;;;;;;;4987834;28;98536;-70
2022/12/19 05:36:19;;;;;;;42.97;23.80;;;;;;;;;;4991323;28;99782;-70
2022/12/19 05:38:46;;;;;;;50.50;26.70;;;;;;;;;;4988852;28;99089;-70
2022/12/19 05:41:16;;;;;;;48.13;25.33;;;;;;;;;;4991582;28;98322;-70
2022/12/19 05:43:44;;;;;;;38.08;21.33;;;;;;;;;;4994801;28;98535;-70
2022/12/19 05:46:10;;;;;;;49.28;25.50;;;;;;;;;;4992071;28;98256;-70
2022/12/19 05:48:37;;;;;;;46.25;23.83;;;;;;;;;;4990789;28;99577;-70
2022/12/19 05:51:04;;;;;;;54.08;26.25;;;;;;;;;;4991119;28;99897;-71
2022/12/19 05:53:31;;;;;;;40.25;21.65;;;;;;;;;;4990691;28;98276;-71
2022/12/19 05:56:11;;;;;;;57.17;27.90;;;;;;;;;;4993610;28;99447;-70
2022/12/19 05:58:37;;;;;;;57.72;26.27;;;;;;;;;;4998761;28;100080;-70
2022/12/19 06:01:09;;;;;;;63.63;27.80;;;;;;;;;;5011476;28;98258;-70
2022/12/19 06:03:35;;;;;;;51.28;26.38;;;;;;;;;;4998368;28;98390;-71
2022/12/19 06:06:03;;;;;;;50.10;23.30;;;;;;;;;;4994305;28;100124;-70
2022/12/19 06:08:29;;;;;;;59.78;25.63;;;;;;;;;;4990934;28;99452;-71
2022/12/19 06:10:59;;;;;;;41.80;23.70;;;;;;;;;;4991127;28;98891;-71
2022/12/19 06:13:28;;;;;;;51.90;26.85;;;;;;;;;;4989780;28;98705;-70
2022/12/19 06:16:02;;;;;;;49.58;25.88;;;;;;;;;;5004028;28;99363;-71
2022/12/19 06:18:29;;;;;;;55.55;24.95;;;;;;;;;;5010068;28;99263;-70
2022/12/19 06:20:56;;;;;;;34.97;19.70;;;;;;;;;;5011201;28;98265;-71
2022/12/19 06:23:23;;;;;;;39.10;22.83;;;;;;;;;;5010093;28;99329;-71
2022/12/19 06:25:49;;;;;;;55.45;27.10;;;;;;;;;;4990725;28;100015;-70
2022/12/19 06:28:16;;;;;;;47.30;25.80;;;;;;;;;;4994479;28;98262;-70
2022/12/19 06:30:42;;;;;;;38.40;22.73;;;;;;;;;;4988792;28;100267;-70
2022/12/19 06:33:08;;;;;;;39.28;23.55;;;;;;;;;;4990649;28;98284;-70
2022/12/19 06:35:35;;;;;;;52.10;24.13;;;;;;;;;;4990432;28;99545;-71
2022/12/19 06:38:02;;;;;;;34.65;20.60;;;;;;;;;;4986889;28;99280;-71
2022/12/19 06:43:13;;;;;;;44.72;24.75;;;;;;;;;;4985831;28;99497;-71
2022/12/19 06:45:39;;;;;;;42.22;23.92;;;;;;;;;;4980535;28;100412;-70
2022/12/19 06:48:06;;;;;;;41.72;22.80;;;;;;;;;;4974444;28;98325;-71
2022/12/19 06:50:34;;;;;;;41.28;23.25;;;;;;;;;;4980091;28;99944;-71
2022/12/19 06:53:06;;;;;;;45.13;25.02;;;;;;;;;;4979786;28;100486;-72
2022/12/19 06:55:34;;;;;;;32.75;20.73;;;;;;;;;;4989913;28;98470;-71
2022/12/19 06:58:01;;;;;;;37.53;20.17;;;;;;;;;;5009869;28;99110;-71
2022/12/19 07:00:27;;;;;;;41.05;22.45;;;;;;;;;;4988495;28;99704;-71
2022/12/19 07:02:54;;;;;;;32.15;19.80;;;;;;;;;;4982226;28;100272;-71
2022/12/19 07:05:21;;;;;;;35.10;22.63;;;;;;;;;;5003967;27;99413;-71
2022/12/19 07:07:47;;;;;;;30.27;20.25;;;;;;;;;;5009222;28;98317;-71
2022/12/19 07:10:14;;;;;;;28.00;18.17;;;;;;;;;;4993222;28;98565;-72
2022/12/19 07:12:40;;;;;;;38.05;23.13;;;;;;;;;;4989611;28;98301;-72
2022/12/19 07:15:07;;;;;;;34.78;23.30;;;;;;;;;;4994817;28;99230;-71
2022/12/19 07:17:36;;;;;;;30.70;21.52;;;;;;;;;;4993467;28;99019;-71
2022/12/19 07:20:03;;;;;;;40.13;23.60;;;;;;;;;;4989517;28;98611;-71
2022/12/19 07:22:30;;;;;;;32.80;22.10;;;;;;;;;;4988793;28;98941;-72
2022/12/19 07:24:57;;;;;;;38.22;23.92;;;;;;;;;;4990017;28;98969;-71
2022/12/19 07:27:24;;;;;;;31.25;21.95;;;;;;;;;;4989084;28;98249;-72
2022/12/19 07:29:59;;;;;;;35.28;23.33;;;;;;;;;;4989919;28;99769;-72
2022/12/19 07:32:25;;;;;;;30.58;20.95;;;;;;;;;;4992676;28;100132;-72
2022/12/19 07:34:54;;;;;;;33.78;20.73;;;;;;;;;;4990031;28;99448;-72
2022/12/19 07:37:20;;;;;;;34.70;22.58;;;;;;;;;;4989241;28;99972;-72
2022/12/19 07:39:47;;;;;;;27.08;18.27;;;;;;;;;;4988767;28;98273;-71
2022/12/19 07:42:14;;;;;;;33.95;23.33;;;;;;;;;;4989276;28;99085;-72
2022/12/19 07:44:40;;;;;;;30.27;19.00;;;;;;;;;;4985804;28;99991;-72
2022/12/19 07:47:09;;;;;;;25.02;19.20;;;;;;;;;;4982630;28;98245;-71
2022/12/19 07:49:35;;;;;;;30.55;21.85;;;;;;;;;;4983848;28;100397;-70
2022/12/19 07:52:02;;;;;;;24.40;19.63;;;;;;;;;;4988968;28;100208;-71
2022/12/19 07:54:28;;;;;;;26.70;20.65;;;;;;;;;;4992411;28;98268;-71
2022/12/19 07:56:55;;;;;;;29.13;19.50;;;;;;;;;;4989296;27;99385;-72
2022/12/19 07:59:21;;;;;;;26.00;18.52;;;;;;;;;;4989270;28;98905;-72
2022/12/19 08:01:55;;;;;;;30.52;20.15;;;;;;;;;;4989038;28;98527;-72
2022/12/19 08:04:22;;;;;;;33.38;21.20;;;;;;;;;;4989436;28;99060;-71
2022/12/19 08:06:48;;;;;;;27.17;17.90;;;;;;;;;;4988926;28;98042;-71
2022/12/19 08:09:15;;;;;;;25.25;18.48;;;;;;;;;;4987164;28;104640;-71
2022/12/19 08:11:41;;;;;;;25.92;18.02;;;;;;;;;;4988612;28;100044;-71
2022/12/19 08:14:07;;;;;;;27.13;18.40;;;;;;;;;;4989243;28;98383;-71
2022/12/19 08:16:35;;;;;;;26.45;19.63;;;;;;;;;;5009426;28;98383;-71
2022/12/19 08:19:21;;;;;;;20.38;17.38;;;;;;;;;;5009031;28;98234;-71
2022/12/19 08:21:53;;;;;;;24.70;17.35;;;;;;;;;;5008872;28;99392;-71
2022/12/19 08:24:19;;;;;;;23.23;18.05;;;;;;;;;;4999836;28;99139;-70
2022/12/19 08:26:45;;;;;;;21.08;16.98;;;;;;;;;;4988856;28;98234;-71
2022/12/19 08:29:13;;;;;;;23.13;17.17;;;;;;;;;;4990091;27;98908;-71
2022/12/19 08:31:39;;;;;;;25.77;18.10;;;;;;;;;;4987409;28;99123;-71
2022/12/19 08:34:06;;;;;;;28.20;18.40;;;;;;;;;;4988617;28;100130;-71
2022/12/19 08:36:32;;;;;;;23.50;16.50;;;;;;;;;;4988566;28;99356;-71
2022/12/19 08:38:59;;;;;;;22.15;15.70;;;;;;;;;;4990683;28;98381;-71
2022/12/19 08:41:25;;;;;;;24.73;18.17;;;;;;;;;;4988444;28;99366;-71
2022/12/19 08:43:52;;;;;;;26.75;18.40;;;;;;;;;;4988413;28;99029;-73
2022/12/19 08:46:19;;;;;;;20.75;16.30;;;;;;;;;;5006943;28;98781;-72
2022/12/19 08:48:45;;;;;;;20.08;15.35;;;;;;;;;;5004003;28;99432;-72
2022/12/19 08:51:12;;;;;;;25.52;17.40;;;;;;;;;;4987763;28;98995;-71
2022/12/19 08:53:40;;;;;;;16.90;13.95;;;;;;;;;;4987787;28;98309;-71
2022/12/19 08:56:12;;;;;;;20.45;15.63;;;;;;;;;;4988815;28;99604;-72
2022/12/19 08:58:39;;;;;;;25.08;17.27;;;;;;;;;;4990607;28;100002;-71
2022/12/19 09:01:07;;;;;;;21.40;16.08;;;;;;;;;;4988372;28;98659;-70
2022/12/19 09:03:34;;;;;;;23.67;18.15;;;;;;;;;;4988412;28;99244;-71
2022/12/19 09:06:21;;;;;;;24.42;16.15;;;;;;;;;;4984391;28;98285;-70
2022/12/19 09:08:48;;;;;;;26.27;15.30;;;;;;;;;;4988902;28;98059;-70
2022/12/19 09:11:16;;;;;;;23.80;15.45;;;;;;;;;;4988161;28;99104;-72
2022/12/19 09:13:42;;;;;;;18.23;13.68;;;;;;;;;;4987255;28;98361;-70
2022/12/19 09:16:09;;;;;;;18.98;14.75;;;;;;;;;;4988373;28;98680;-71
2022/12/19 09:18:35;;;;;;;22.60;14.43;;;;;;;;;;4987897;28;99919;-70
2022/12/19 09:21:02;;;;;;;21.17;13.70;;;;;;;;;;4990551;28;98293;-70
2022/12/19 09:23:33;;;;;;;21.40;14.07;;;;;;;;;;4987723;28;99942;-71
2022/12/19 09:26:04;;;;;;;18.77;12.00;;;;;;;;;;4988245;28;98275;-71
2022/12/19 09:28:30;;;;;;;15.93;12.68;;;;;;;;;;4987184;28;99443;-71
2022/12/19 09:30:58;;;;;;;16.75;13.77;;;;;;;;;;4989167;27;99187;-71
2022/12/19 09:33:25;;;;;;;17.67;13.15;;;;;;;;;;4975613;28;98516;-71
2022/12/19 09:35:52;;;;;;;18.38;12.27;;;;;;;;;;4968609;28;98850;-71
2022/12/19 09:38:24;;;;;;;21.92;13.50;;;;;;;;;;4968485;28;100141;-71
2022/12/19 09:40:56;;;;;;;12.60;9.88;;;;;;;;;;4967467;28;98901;-73
2022/12/19 09:43:41;;;;;;;21.70;14.25;;;;;;;;;;4971921;28;99603;-72
2022/12/19 09:46:14;;;;;;;18.58;12.40;;;;;;;;;;4968978;28;98287;-72
2022/12/19 09:48:40;;;;;;;15.20;10.88;;;;;;;;;;4977465;28;99312;-71
2022/12/19 09:51:15;;;;;;;18.80;12.82;;;;;;;;;;4987468;28;99940;-71
2022/12/19 09:53:55;;;;;;;16.05;11.30;;;;;;;;;;4987481;28;98205;-71
2022/12/19 09:56:25;;;;;;;13.35;11.95;;;;;;;;;;4984595;28;100416;-71
2022/12/19 09:58:54;;;;;;;14.63;11.75;;;;;;;;;;4977801;28;100557;-71
2022/12/19 10:01:24;;;;;;;14.10;12.13;;;;;;;;;;4982944;28;98313;-71
2022/12/19 10:03:59;;;;;;;17.95;12.05;;;;;;;;;;4982387;28;98707;-71
2022/12/19 10:06:26;;;;;;;19.17;10.38;;;;;;;;;;4989661;28;99187;-71
2022/12/19 10:09:13;;;;;;;15.43;11.57;;;;;;;;;;4988077;28;98240;-71
2022/12/19 10:12:09;;;;;;;14.50;12.38;;;;;;;;;;4990657;28;99161;-70
2022/12/19 10:14:55;;;;;;;15.52;12.20;;;;;;;;;;4990965;28;98646;-72
2022/12/19 10:17:33;;;;;;;14.45;12.48;;;;;;;;;;4990320;28;98634;-71
2022/12/19 10:20:19;;;;;;;12.73;11.38;;;;;;;;;;4988251;28;99180;-72
2022/12/19 10:22:51;;;;;;;18.10;11.20;;;;;;;;;;4989783;28;98472;-72
2022/12/19 10:25:23;;;;;;;13.52;12.02;;;;;;;;;;4991246;28;99350;-72
2022/12/19 10:27:57;;;;;;;16.15;12.48;;;;;;;;;;4989376;28;100061;-71
2022/12/19 10:30:27;;;;;;;15.93;10.27;;;;;;;;;;4990650;28;98335;-70
2022/12/19 10:33:12;;;;;;;13.48;11.60;;;;;;;;;;4989630;28;100066;-71
2022/12/19 10:35:51;;;;;;;16.70;10.02;;;;;;;;;;4988322;28;98281;-71
2022/12/19 10:38:25;;;;;;;16.10;10.60;;;;;;;;;;4989808;28;99457;-71
2022/12/19 10:40:54;;;;;;;12.77;9.35;;;;;;;;;;4990854;28;99096;-71
2022/12/19 10:43:52;;;;;;;10.45;9.45;;;;;;;;;;4988939;28;98686;-71
2022/12/19 10:46:38;;;;;;;12.98;8.65;;;;;;;;;;4932809;28;99880;-71
2022/12/19 10:49:17;;;;;;;9.40;8.27;;;;;;;;;;4970963;28;98803;-71
2022/12/19 10:52:01;;;;;;;13.88;8.73;;;;;;;;;;4989022;28;98185;-71
2022/12/19 10:54:40;;;;;;;9.75;8.05;;;;;;;;;;4989284;28;98982;-72
2022/12/19 10:57:22;;;;;;;12.30;9.73;;;;;;;;;;4990777;28;98475;-71
2022/12/19 11:00:03;;;;;;;14.13;9.90;;;;;;;;;;4990175;28;98465;-71
2022/12/19 11:02:32;;;;;;;15.82;9.13;;;;;;;;;;4986556;28;99136;-72
2022/12/19 11:04:59;;;;;;;11.55;8.85;;;;;;;;;;4980353;28;99198;-71
2022/12/19 11:07:26;;;;;;;9.13;8.27;;;;;;;;;;4986862;28;99023;-71
2022/12/19 11:09:52;;;;;;;9.00;8.10;;;;;;;;;;4988160;28;100967;-72
2022/12/19 11:12:49;;;;;;;11.95;8.05;;;;;;;;;;4989344;28;98729;-71
2022/12/19 11:15:44;;;;;;;13.18;8.50;;;;;;;;;;4993192;28;99272;-71
2022/12/19 11:18:34;;;;;;;10.57;7.65;;;;;;;;;;4990009;28;98431;-71
2022/12/19 11:21:26;;;;;;;10.40;8.05;;;;;;;;;;4989885;28;98657;-72
2022/12/19 11:24:20;;;;;;;8.45;7.57;;;;;;;;;;4989806;28;99985;-71
2022/12/19 11:27:25;;;;;;;8.38;7.70;;;;;;;;;;4987218;28;98965;-71
2022/12/19 11:30:14;;;;;;;8.68;7.78;;;;;;;;;;4990205;28;98526;-72
2022/12/19 11:33:07;;;;;;;11.60;7.65;;;;;;;;;;4989067;28;100299;-71
2022/12/19 11:35:43;;;;;;;11.55;8.68;;;;;;;;;;4978293;28;98303;-72
2022/12/19 11:38:12;;;;;;;13.82;8.45;;;;;;;;;;4990178;28;98338;-72
2022/12/19 11:40:40;;;;;;;8.35;7.40;;;;;;;;;;4991827;28;100141;-72
2022/12/19 11:43:26;;;;;;;10.38;9.05;;;;;;;;;;4989592;28;98976;-72
2022/12/19 11:46:24;;;;;;;9.00;7.10;;;;;;;;;;4989513;28;100641;-72
2022/12/19 11:49:09;;;;;;;8.20;7.40;;;;;;;;;;4989186;28;98523;-72
2022/12/19 11:51:42;;;;;;;11.77;7.57;;;;;;;;;;4989892;28;98956;-71
2022/12/19 11:54:31;;;;;;;9.48;7.95;;;;;;;;;;4989176;28;98864;-72
2022/12/19 11:56:58;;;;;;;10.98;7.25;;;;;;;;;;4990644;28;98562;-72
2022/12/19 11:59:33;;;;;;;9.98;8.18;;;;;;;;;;4990071;28;99589;-72
2022/12/19 12:01:59;;;;;;;9.38;8.48;;;;;;;;;;4988071;28;100696;-71
2022/12/19 12:04:36;;;;;;;9.07;7.70;;;;;;;;;;4992226;28;99797;-72
2022/12/19 12:07:03;;;;;;;9.25;7.72;;;;;;;;;;4988999;28;100160;-71
2022/12/19 12:09:56;;;;;;;9.15;7.65;;;;;;;;;;4983977;28;98415;-71
2022/12/19 12:12:46;;;;;;;9.88;7.03;;;;;;;;;;4981973;28;100401;-71
2022/12/19 12:15:32;;;;;;;8.32;6.97;;;;;;;;;;4982651;28;99300;-71
2022/12/19 12:18:37;;;;;;;7.60;6.90;;;;;;;;;;4989289;28;98305;-71
2022/12/19 12:21:25;;;;;;;7.45;6.78;;;;;;;;;;4988985;28;98740;-71
2022/12/19 12:24:11;;;;;;;7.80;7.13;;;;;;;;;;4972536;28;99911;-71
2022/12/19 12:27:00;;;;;;;11.90;7.22;;;;;;;;;;4970070;28;98212;-71
2022/12/19 12:29:56;;;;;;;7.57;6.70;;;;;;;;;;4987332;28;98653;-71
2022/12/19 12:32:48;;;;;;;8.50;6.22;;;;;;;;;;4988010;28;98269;-72
2022/12/19 12:35:35;;;;;;;7.30;6.20;;;;;;;;;;4988948;28;99706;-72
2022/12/19 12:38:22;;;;;;;12.43;6.65;;;;;;;;;;4987607;28;99001;-72
2022/12/19 12:40:52;;;;;;;6.60;5.97;;;;;;;;;;4989329;28;98263;-72
2022/12/19 12:43:24;;;;;;;7.00;6.38;;;;;;;;;;4988336;28;98553;-71
2022/12/19 12:45:51;;;;;;;6.80;6.15;;;;;;;;;;4988740;28;99166;-71
2022/12/19 12:48:21;;;;;;;8.10;5.65;;;;;;;;;;4987591;28;98309;-71
2022/12/19 12:50:49;;;;;;;6.32;5.72;;;;;;;;;;4987643;28;98674;-71
2022/12/19 12:53:24;;;;;;;11.23;6.15;;;;;;;;;;4991838;28;99591;-71
2022/12/19 12:55:51;;;;;;;8.15;6.25;;;;;;;;;;4988192;28;98757;-71
2022/12/19 12:58:35;;;;;;;7.70;5.78;;;;;;;;;;4987816;28;98946;-72
2022/12/19 13:01:10;;;;;;;6.03;5.53;;;;;;;;;;4988637;28;98276;-72
2022/12/19 13:03:39;;;;;;;9.10;5.32;;;;;;;;;;4988950;28;98790;-72
2022/12/19 13:06:17;;;;;;;6.28;5.07;;;;;;;;;;4986196;28;100326;-72
2022/12/19 13:08:47;;;;;;;6.57;5.07;;;;;;;;;;4988266;28;98294;-72
2022/12/19 13:12:58;;;;;;;6.00;4.82;;;;;;;;;;4988740;28;98886;-72
2022/12/19 13:14:04;;;;;;;5.63;5.13;;;;;;;;;;4991207;28;100040;-72
2022/12/19 13:16:42;;;;;;;5.80;4.50;;;;;;;;;;4984005;28;98889;-72
2022/12/19 13:19:22;;;;;;;6.30;5.53;;;;;;;;;;4983066;28;99097;-72
2022/12/19 13:22:02;;;;;;;5.43;4.97;;;;;;;;;;4985501;28;98526;-72
2022/12/19 13:24:44;;;;;;;9.55;4.95;;;;;;;;;;4988003;28;98906;-72
2022/12/19 13:27:19;;;;;;;6.57;4.78;;;;;;;;;;4987486;28;99194;-72
2022/12/19 13:30:09;;;;;;;4.93;4.63;;;;;;;;;;4988050;28;98332;-71
2022/12/19 13:32:38;;;;;;;7.78;4.53;;;;;;;;;;4984282;28;99416;-72
2022/12/19 13:35:08;;;;;;;6.32;4.80;;;;;;;;;;4988127;28;100152;-71
2022/12/19 13:38:00;;;;;;;5.38;4.80;;;;;;;;;;4991676;28;98359;-71
2022/12/19 13:40:57;;;;;;;5.88;4.65;;;;;;;;;;4986123;28;99995;-72
2022/12/19 13:46:36;;;;;;;4.95;4.55;;;;;;;;;;4992209;28;99038;-73
2022/12/19 13:49:16;;;;;;;6.33;4.20;;;;;;;;;;4991486;28;100296;-73
2022/12/19 13:51:47;;;;;;;6.18;5.50;;;;;;;;;;4990325;28;98079;-72
2022/12/19 13:54:21;;;;;;;5.72;5.00;;;;;;;;;;4990860;28;99396;-72
2022/12/19 13:56:49;;;;;;;5.07;4.65;;;;;;;;;;4990630;28;98877;-73
2022/12/19 13:59:15;;;;;;;4.93;4.53;;;;;;;;;;4991632;28;98268;-73
2022/12/19 14:01:42;;;;;;;4.53;4.13;;;;;;;;;;4993652;28;99683;-73
2022/12/19 14:04:15;;;;;;;6.65;4.97;;;;;;;;;;4991544;28;98172;-73
2022/12/19 14:06:46;;;;;;;5.70;4.93;;;;;;;;;;4990949;28;98994;-73
2022/12/19 14:09:31;;;;;;;5.25;4.70;;;;;;;;;;4990646;28;99912;-73
2022/12/19 14:15:34;;;;;;;4.68;4.30;;;;;;;;;;4989489;28;99044;-73
2022/12/19 14:18:19;;;;;;;12.95;4.60;;;;;;;;;;4990837;28;100134;-72
2022/12/19 14:21:14;;;;;;;7.43;4.63;;;;;;;;;;4985483;28;98542;-73
2022/12/19 14:24:17;;;;;;;8.93;4.95;;;;;;;;;;4985513;28;101509;-72
2022/12/19 14:26:47;;;;;;;5.65;4.28;;;;;;;;;;4983313;28;99275;-73
2022/12/19 14:29:40;;;;;;;5.22;4.53;;;;;;;;;;4984604;28;98742;-73
2022/12/19 14:32:26;;;;;;;7.82;4.30;;;;;;;;;;4980292;28;99049;-73
2022/12/19 14:35:18;;;;;;;5.40;4.85;;;;;;;;;;4987601;28;98379;-74
2022/12/19 14:38:06;;;;;;;12.95;4.13;;;;;;;;;;5000360;28;98722;-72
2022/12/19 14:40:52;;;;;;;4.82;4.43;;;;;;;;;;4990566;28;99764;-72
2022/12/19 14:43:37;;;;;;;9.10;4.80;;;;;;;;;;4990287;28;98218;-72
2022/12/19 14:46:23;;;;;;;5.07;4.57;;;;;;;;;;4987708;28;98506;-72
2022/12/19 14:49:29;;;;;;;4.30;4.00;;;;;;;;;;4979831;28;99116;-71
2022/12/19 14:52:34;;;;;;;11.30;4.80;;;;;;;;;;4993271;28;98470;-71
2022/12/19 14:55:20;;;;;;;6.05;4.45;;;;;;;;;;4970635;28;99200;-71
2022/12/19 14:58:09;;;;;;;5.03;4.50;;;;;;;;;;4970167;28;98243;-72
2022/12/19 15:00:55;;;;;;;5.13;3.92;;;;;;;;;;4977269;28;99179;-73
2022/12/19 15:03:40;;;;;;;6.45;4.03;;;;;;;;;;4981547;28;100172;-71
2022/12/19 15:06:13;;;;;;;4.60;4.17;;;;;;;;;;4985335;28;100383;-71